createdAt,value
2023-08-19T00:02:12.942Z,24.10
2023-08-19T00:05:00.046Z,24.10
2023-08-19T00:07:45.758Z,24.00
2023-08-19T00:10:31.396Z,24.00
2023-08-19T00:13:17.033Z,24.00
2023-08-19T00:16:05.339Z,24.00
2023-08-19T00:18:50.888Z,23.90
2023-08-19T00:21:36.275Z,23.80
2023-08-19T00:24:21.772Z,23.80
2023-08-19T00:27:07.616Z,23.80
2023-08-19T00:29:53.179Z,23.80
2023-08-19T00:32:39.437Z,23.80
2023-08-19T00:35:25.127Z,23.80
2023-08-19T00:38:11.458Z,23.80
2023-08-19T00:40:57.172Z,23.80
2023-08-19T00:43:42.869Z,23.70
2023-08-19T00:46:28.603Z,23.70
2023-08-19T00:49:13.919Z,23.70
2023-08-19T00:51:59.941Z,23.70
2023-08-19T00:54:45.998Z,23.60
2023-08-19T00:57:32.468Z,23.60
2023-08-19T01:00:20.412Z,23.60
2023-08-19T01:03:07.366Z,23.60
2023-08-19T01:05:56.508Z,23.60
2023-08-19T01:08:52.383Z,23.50
2023-08-19T01:11:52.734Z,23.50
2023-08-19T01:14:38.408Z,23.50
2023-08-19T01:17:26.443Z,23.40
2023-08-19T01:20:12.997Z,23.40
2023-08-19T01:22:58.543Z,23.40
2023-08-19T01:25:44.340Z,23.40
2023-08-19T01:28:30.021Z,23.30
2023-08-19T01:31:15.295Z,23.30
2023-08-19T01:34:01.122Z,23.30
2023-08-19T01:36:50.027Z,23.30
2023-08-19T01:39:37.585Z,23.30
2023-08-19T01:42:23.227Z,23.30
2023-08-19T01:45:09.203Z,23.30
2023-08-19T01:47:55.170Z,23.20
2023-08-19T01:50:40.687Z,23.20
2023-08-19T01:53:26.471Z,23.20
2023-08-19T01:56:15.192Z,23.10
2023-08-19T01:59:01.390Z,23.10
2023-08-19T02:01:47.109Z,23.10
2023-08-19T02:04:32.553Z,23.10
2023-08-19T02:07:18.215Z,23.10
2023-08-19T02:10:04.257Z,23.10
2023-08-19T02:12:49.542Z,23.00
2023-08-19T02:15:35.491Z,23.00
2023-08-19T02:18:22.255Z,23.00
2023-08-19T02:21:07.462Z,23.00
2023-08-19T02:23:52.903Z,22.90
2023-08-19T02:26:38.434Z,22.80
2023-08-19T02:29:24.379Z,22.80
2023-08-19T02:32:09.810Z,22.70
2023-08-19T02:34:55.140Z,22.70
2023-08-19T02:37:41.531Z,22.60
2023-08-19T02:40:29.135Z,22.70
2023-08-19T02:43:14.500Z,22.60
2023-08-19T02:45:59.752Z,22.60
2023-08-19T02:48:45.491Z,22.60
2023-08-19T02:51:31.448Z,22.60
2023-08-19T02:54:16.845Z,22.60
2023-08-19T02:57:02.839Z,22.60
2023-08-19T02:59:48.474Z,22.50
2023-08-19T03:02:34.235Z,22.50
2023-08-19T03:05:19.874Z,22.50
2023-08-19T03:08:05.797Z,22.50
2023-08-19T03:10:51.337Z,22.50
2023-08-19T03:13:37.114Z,22.50
2023-08-19T03:16:22.820Z,22.50
2023-08-19T03:19:08.480Z,22.50
2023-08-19T03:21:54.288Z,22.50
2023-08-19T03:24:39.918Z,22.40
2023-08-19T03:27:25.742Z,22.40
2023-08-19T03:30:11.626Z,22.40
2023-08-19T03:32:57.760Z,22.40
2023-08-19T03:35:43.883Z,22.40
2023-08-19T03:38:29.528Z,22.30
2023-08-19T03:41:15.381Z,22.40
2023-08-19T03:44:01.027Z,22.30
2023-08-19T03:46:46.846Z,22.30
2023-08-19T03:49:32.647Z,22.30
2023-08-19T03:52:19.826Z,22.20
2023-08-19T03:55:06.360Z,22.20
2023-08-19T03:57:52.486Z,22.30
2023-08-19T04:00:39.012Z,22.20
2023-08-19T04:03:25.696Z,22.20
2023-08-19T04:06:12.296Z,22.10
2023-08-19T04:08:57.526Z,22.10
2023-08-19T04:11:43.330Z,22.10
2023-08-19T04:14:28.859Z,22.10
2023-08-19T04:17:14.547Z,22.10
2023-08-19T04:20:00.313Z,22.10
2023-08-19T04:22:46.100Z,22.10
2023-08-19T04:25:31.821Z,22.10
2023-08-19T04:28:17.139Z,22.10
2023-08-19T04:31:07.853Z,22.10
2023-08-19T04:34:00.078Z,22.10
2023-08-19T04:36:46.245Z,22.10
2023-08-19T04:39:32.662Z,22.10
2023-08-19T04:42:25.855Z,22.10
2023-08-19T04:45:11.956Z,22.10
2023-08-19T04:48:03.200Z,22.10
2023-08-19T04:50:50.290Z,22.10
2023-08-19T04:53:35.751Z,22.00
2023-08-19T04:56:21.607Z,22.00
2023-08-19T04:59:07.409Z,22.00
2023-08-19T05:01:53.163Z,22.10
2023-08-19T05:04:38.936Z,22.10
2023-08-19T05:07:24.917Z,22.10
2023-08-19T05:10:10.681Z,22.10
2023-08-19T05:12:58.221Z,22.10
2023-08-19T05:15:44.235Z,22.10
2023-08-19T05:18:31.173Z,22.10
2023-08-19T05:21:16.725Z,22.10
2023-08-19T05:24:02.668Z,22.10
2023-08-19T05:26:48.179Z,22.10
2023-08-19T05:29:33.863Z,22.20
2023-08-19T05:32:19.574Z,22.20
2023-08-19T05:35:04.993Z,22.20
2023-08-19T05:37:50.507Z,22.20
2023-08-19T05:40:35.684Z,22.30
2023-08-19T05:43:20.931Z,22.30
2023-08-19T05:46:07.709Z,22.40
2023-08-19T05:48:53.689Z,22.40
2023-08-19T05:51:39.522Z,22.40
2023-08-19T05:54:25.115Z,22.50
2023-08-19T05:57:10.445Z,22.50
2023-08-19T05:59:56.584Z,22.60
2023-08-19T06:02:42.274Z,22.60
2023-08-19T06:05:27.985Z,22.60
2023-08-19T06:08:13.641Z,22.60
2023-08-19T06:11:01.475Z,22.70
2023-08-19T06:13:46.994Z,22.70
2023-08-19T06:16:32.289Z,22.80
2023-08-19T06:19:17.660Z,22.80
2023-08-19T06:22:03.398Z,22.80
2023-08-19T06:24:48.696Z,22.90
2023-08-19T06:27:34.394Z,22.90
2023-08-19T06:30:20.339Z,22.90
2023-08-19T06:33:06.429Z,23.00
2023-08-19T06:35:52.735Z,23.00
2023-08-19T06:38:41.012Z,23.10
2023-08-19T06:41:28.751Z,23.10
2023-08-19T06:44:15.617Z,25.70
2023-08-19T06:47:01.932Z,23.20
2023-08-19T06:49:48.013Z,23.30
2023-08-19T06:52:33.517Z,23.40
2023-08-19T06:55:19.269Z,23.40
2023-08-19T06:58:08.617Z,23.40
2023-08-19T07:00:57.254Z,23.50
2023-08-19T07:03:42.914Z,23.50
2023-08-19T07:06:29.964Z,23.60
2023-08-19T07:09:15.811Z,23.70
2023-08-19T07:12:02.793Z,23.70
2023-08-19T07:14:48.360Z,23.70
2023-08-19T07:17:34.794Z,23.80
2023-08-19T07:20:24.238Z,23.80
2023-08-19T07:23:09.638Z,23.90
2023-08-19T07:25:55.174Z,24.00
2023-08-19T07:28:40.766Z,24.00
2023-08-19T07:31:26.366Z,24.10
2023-08-19T07:34:11.771Z,24.10
2023-08-19T07:36:57.076Z,24.20
2023-08-19T07:39:42.965Z,24.20
2023-08-19T07:42:29.241Z,24.20
2023-08-19T07:45:16.282Z,24.30
2023-08-19T07:48:01.810Z,24.30
2023-08-19T07:50:47.413Z,24.30
2023-08-19T07:53:33.136Z,24.40
2023-08-19T07:56:18.837Z,24.40
2023-08-19T07:59:04.788Z,24.40
2023-08-19T08:01:50.282Z,24.40
2023-08-19T08:04:35.910Z,24.40
2023-08-19T08:07:22.218Z,24.50
2023-08-19T08:10:07.855Z,24.50
2023-08-19T08:12:53.398Z,24.60
2023-08-19T08:15:39.129Z,24.60
2023-08-19T08:18:24.948Z,24.70
2023-08-19T08:21:10.782Z,24.70
2023-08-19T08:23:56.607Z,24.70
2023-08-19T08:26:41.923Z,24.70
2023-08-19T08:29:27.680Z,24.80
2023-08-19T08:32:12.870Z,24.80
2023-08-19T08:34:58.429Z,24.90
2023-08-19T08:37:44.023Z,24.90
2023-08-19T08:40:30.786Z,25.00
2023-08-19T08:43:16.866Z,25.00
2023-08-19T08:46:02.451Z,25.00
2023-08-19T08:48:48.218Z,25.10
2023-08-19T08:51:33.723Z,25.10
2023-08-19T08:54:20.843Z,25.10
2023-08-19T08:57:06.688Z,25.10
2023-08-19T08:59:53.945Z,25.20
2023-08-19T09:02:40.758Z,25.20
2023-08-19T09:05:27.820Z,25.20
2023-08-19T09:08:14.959Z,25.20
2023-08-19T09:11:03.614Z,25.20
2023-08-19T09:13:52.597Z,25.30
2023-08-19T09:16:38.138Z,25.30
2023-08-19T09:19:23.762Z,25.30
2023-08-19T09:22:12.861Z,25.30
2023-08-19T09:24:58.665Z,25.40
2023-08-19T09:27:45.469Z,25.40
2023-08-19T09:30:34.922Z,25.40
2023-08-19T09:33:21.540Z,25.50
2023-08-19T09:36:08.943Z,25.50
2023-08-19T09:38:55.621Z,25.50
2023-08-19T09:41:41.592Z,25.60
2023-08-19T09:44:30.581Z,25.60
2023-08-19T09:47:16.107Z,25.70
2023-08-19T09:50:01.459Z,25.70
2023-08-19T09:52:57.053Z,25.70
2023-08-19T09:55:45.486Z,25.80
2023-08-19T09:58:30.745Z,25.80
2023-08-19T10:01:16.105Z,25.90
2023-08-19T10:04:01.633Z,25.90
2023-08-19T10:06:51.772Z,26.00
2023-08-19T10:09:39.232Z,26.00
2023-08-19T10:12:24.906Z,26.10
2023-08-19T10:15:13.471Z,26.10
2023-08-19T10:18:00.218Z,26.10
2023-08-19T10:20:48.500Z,26.10
2023-08-19T10:23:35.008Z,26.10
2023-08-19T10:26:20.792Z,26.10
2023-08-19T10:29:08.183Z,26.10
2023-08-19T10:31:53.901Z,26.10
2023-08-19T10:34:46.411Z,26.10
2023-08-19T10:37:33.069Z,26.00
2023-08-19T10:40:22.278Z,26.00
2023-08-19T10:43:08.144Z,26.00
2023-08-19T10:45:57.480Z,26.00
2023-08-19T10:48:46.873Z,26.00
2023-08-19T10:52:06.717Z,26.00
2023-08-19T10:54:53.144Z,26.00
2023-08-19T10:57:41.565Z,26.00
2023-08-19T11:00:31.935Z,26.00
2023-08-19T11:03:17.562Z,26.00
2023-08-19T11:06:06.173Z,26.00
2023-08-19T11:08:51.898Z,26.00
2023-08-19T11:11:37.975Z,26.00
2023-08-19T11:14:24.589Z,26.00
2023-08-19T11:17:09.809Z,26.00
2023-08-19T11:19:55.715Z,26.00
2023-08-19T11:22:43.853Z,26.00
2023-08-19T11:25:36.666Z,26.10
2023-08-19T11:28:22.186Z,26.10
2023-08-19T11:31:07.525Z,26.10
2023-08-19T11:33:54.201Z,26.10
2023-08-19T11:36:40.037Z,24.50
2023-08-19T11:39:31.923Z,26.10
2023-08-19T11:42:17.569Z,26.10
2023-08-19T11:45:06.759Z,26.10
2023-08-19T11:47:52.499Z,22.50
2023-08-19T11:50:43.902Z,26.10
2023-08-19T11:53:29.792Z,26.10
2023-08-19T11:56:15.334Z,26.10
2023-08-19T11:59:04.150Z,26.10
2023-08-19T12:01:49.817Z,26.10
2023-08-19T12:04:35.551Z,26.10
2023-08-19T12:07:26.546Z,26.00
2023-08-19T12:10:11.956Z,26.10
2023-08-19T12:12:58.885Z,26.10
2023-08-19T12:15:44.328Z,26.10
2023-08-19T12:18:33.869Z,26.10
2023-08-19T12:21:19.334Z,26.10
2023-08-19T12:24:04.873Z,26.10
2023-08-19T12:26:50.320Z,26.10
2023-08-19T12:29:37.146Z,26.10
2023-08-19T12:32:22.693Z,26.10
2023-08-19T12:35:08.417Z,26.10
2023-08-19T12:37:53.710Z,26.10
2023-08-19T12:40:39.347Z,26.10
2023-08-19T12:43:25.268Z,26.20
2023-08-19T12:46:11.340Z,26.20
2023-08-19T12:48:56.928Z,26.30
2023-08-19T12:51:42.881Z,26.20
2023-08-19T12:54:28.516Z,26.20
2023-08-19T12:57:13.851Z,26.30
2023-08-19T12:59:59.542Z,26.30
2023-08-19T13:02:45.036Z,26.30
2023-08-19T13:05:30.744Z,26.40
2023-08-19T13:08:15.867Z,26.40
2023-08-19T13:11:01.015Z,26.40
2023-08-19T13:13:46.858Z,26.50
2023-08-19T13:16:32.663Z,26.60
2023-08-19T13:19:18.444Z,26.70
2023-08-19T13:22:05.081Z,26.90
2023-08-19T13:24:51.328Z,27.00
2023-08-19T13:27:37.095Z,27.20
2023-08-19T13:30:22.738Z,27.30
2023-08-19T13:33:08.682Z,27.60
2023-08-19T13:35:55.059Z,27.80
2023-08-19T13:38:40.755Z,28.10
2023-08-19T13:41:28.610Z,28.30
2023-08-19T13:44:14.254Z,28.50
2023-08-19T13:46:59.954Z,28.60
2023-08-19T13:49:45.541Z,28.60
2023-08-19T13:52:40.253Z,28.50
2023-08-19T13:55:25.867Z,28.50
2023-08-19T13:58:11.785Z,28.40
2023-08-19T14:00:57.875Z,28.40
2023-08-19T14:03:43.348Z,28.40
2023-08-19T14:06:29.120Z,28.40
2023-08-19T14:09:14.603Z,28.30
2023-08-19T14:12:00.251Z,28.20
2023-08-19T14:14:46.019Z,28.10
2023-08-19T14:17:31.692Z,28.00
2023-08-19T14:20:17.796Z,27.90
2023-08-19T14:23:04.463Z,27.90
2023-08-19T14:25:50.080Z,27.90
2023-08-19T14:28:35.498Z,27.90
2023-08-19T14:31:21.289Z,27.90
2023-08-19T14:34:07.035Z,27.80
2023-08-19T14:36:52.310Z,27.70
2023-08-19T14:39:38.085Z,27.60
2023-08-19T14:42:24.031Z,27.50
2023-08-19T14:45:09.766Z,27.40
2023-08-19T14:47:55.249Z,27.30
2023-08-19T14:50:41.026Z,27.20
2023-08-19T14:53:26.738Z,27.20
2023-08-19T14:56:12.002Z,27.20
2023-08-19T14:58:57.636Z,27.10
2023-08-19T15:01:43.251Z,27.10
2023-08-19T15:04:28.975Z,27.10
2023-08-19T15:07:14.497Z,27.20
2023-08-19T15:10:00.405Z,27.20
2023-08-19T15:12:46.621Z,27.20
2023-08-19T15:15:33.268Z,27.20
2023-08-19T15:18:18.514Z,27.20
2023-08-19T15:21:04.367Z,27.20
2023-08-19T15:23:50.006Z,27.10
2023-08-19T15:26:35.695Z,27.10
2023-08-19T15:29:21.164Z,27.00
2023-08-19T15:32:08.625Z,27.00
2023-08-19T15:34:53.830Z,27.00
2023-08-19T15:37:39.634Z,26.90
2023-08-19T15:40:25.426Z,26.90
2023-08-19T15:43:10.599Z,26.80
2023-08-19T15:45:56.411Z,26.90
2023-08-19T15:48:42.029Z,26.80
2023-08-19T15:51:27.743Z,26.80
2023-08-19T15:54:13.414Z,26.80
2023-08-19T15:56:59.115Z,26.70
2023-08-19T15:59:44.836Z,26.70
2023-08-19T16:02:30.398Z,26.70
2023-08-19T16:05:16.188Z,26.70
2023-08-19T16:08:02.106Z,26.70
2023-08-19T16:10:47.745Z,26.60
2023-08-19T16:13:33.476Z,26.60
2023-08-19T16:16:18.937Z,26.60
2023-08-19T16:19:04.149Z,26.60
2023-08-19T16:21:50.104Z,26.60
2023-08-19T16:24:35.690Z,26.60
2023-08-19T16:27:21.442Z,26.60
2023-08-19T16:30:06.933Z,26.60
2023-08-19T16:32:52.800Z,26.60
2023-08-19T16:35:38.526Z,26.60
2023-08-19T16:38:25.380Z,26.50
2023-08-19T16:41:11.071Z,26.50
2023-08-19T16:43:56.804Z,26.50
2023-08-19T16:46:42.828Z,26.50
2023-08-19T16:49:28.333Z,26.50
2023-08-19T16:52:13.562Z,26.50
2023-08-19T16:54:59.633Z,26.40
2023-08-19T16:57:45.249Z,26.50
2023-08-19T17:00:30.914Z,26.50
2023-08-19T17:03:16.833Z,26.50
2023-08-19T17:06:03.816Z,26.50
2023-08-19T17:08:51.809Z,26.50
2023-08-19T17:11:37.441Z,26.50
2023-08-19T17:14:22.819Z,26.50
2023-08-19T17:17:08.818Z,26.50
2023-08-19T17:19:54.020Z,26.60
2023-08-19T17:22:39.206Z,26.50
2023-08-19T17:25:24.450Z,26.50
2023-08-19T17:28:10.224Z,26.50
2023-08-19T17:31:03.023Z,26.50
2023-08-19T17:33:49.209Z,26.50
2023-08-19T17:36:36.888Z,26.50
2023-08-19T17:39:23.791Z,26.50
2023-08-19T17:42:09.416Z,26.50
2023-08-19T17:44:54.950Z,26.50
2023-08-19T17:47:40.380Z,26.50
2023-08-19T17:50:26.112Z,26.50
2023-08-19T17:53:11.776Z,26.50
2023-08-19T17:56:00.919Z,26.50
2023-08-19T17:58:46.352Z,26.40
2023-08-19T18:01:31.976Z,26.40
2023-08-19T18:04:17.591Z,26.40
2023-08-19T18:07:03.463Z,26.40
2023-08-19T18:09:48.996Z,26.40
2023-08-19T18:12:34.747Z,26.40
2023-08-19T18:15:20.496Z,26.40
2023-08-19T18:18:05.952Z,26.40
2023-08-19T18:20:54.993Z,26.40
2023-08-19T18:23:40.874Z,26.40
2023-08-19T18:26:26.674Z,26.40
2023-08-19T18:29:11.923Z,26.40
2023-08-19T18:31:57.811Z,26.40
2023-08-19T18:34:43.136Z,26.40
2023-08-19T18:37:28.208Z,27.70
2023-08-19T18:40:15.225Z,26.40
2023-08-19T18:43:00.732Z,26.30
2023-08-19T18:45:47.176Z,26.30
2023-08-19T18:48:32.572Z,26.30
2023-08-19T18:51:17.897Z,26.30
2023-08-19T18:54:03.806Z,26.30
2023-08-19T18:56:49.459Z,26.30
2023-08-19T18:59:35.194Z,26.20
2023-08-19T19:02:20.513Z,26.20
2023-08-19T19:05:07.064Z,26.20
2023-08-19T19:07:54.649Z,26.20
2023-08-19T19:10:40.100Z,26.20
2023-08-19T19:13:25.765Z,26.10
2023-08-19T19:16:11.559Z,26.00
2023-08-19T19:18:57.213Z,26.00
2023-08-19T19:21:42.822Z,25.90
2023-08-19T19:24:28.037Z,25.90
2023-08-19T19:27:13.783Z,25.90
2023-08-19T19:29:59.383Z,26.00
2023-08-19T19:32:45.952Z,25.90
2023-08-19T19:35:31.594Z,25.90
2023-08-19T19:38:17.261Z,25.80
2023-08-19T19:41:03.430Z,25.80
2023-08-19T19:43:49.332Z,25.70
2023-08-19T19:46:34.767Z,25.60
2023-08-19T19:49:20.444Z,25.60
2023-08-19T19:52:09.558Z,25.60
2023-08-19T19:54:55.121Z,25.60
2023-08-19T19:57:40.871Z,25.60
2023-08-19T20:00:28.816Z,25.60
2023-08-19T20:03:16.068Z,25.60
2023-08-19T20:06:01.807Z,25.60
2023-08-19T20:08:47.344Z,25.60
2023-08-19T20:11:33.162Z,25.50
2023-08-19T20:14:20.202Z,25.40
2023-08-19T20:17:05.637Z,25.30
2023-08-19T20:19:52.126Z,25.30
2023-08-19T20:22:37.772Z,25.20
2023-08-19T20:25:23.535Z,25.20
2023-08-19T20:28:08.829Z,25.10
2023-08-19T20:30:54.591Z,25.10
2023-08-19T20:33:40.454Z,25.00
2023-08-19T20:36:28.473Z,24.90
2023-08-19T20:39:15.973Z,24.90
2023-08-19T20:42:01.715Z,24.80
2023-08-19T20:44:47.125Z,24.80
2023-08-19T20:47:33.461Z,24.80
2023-08-19T20:50:20.165Z,24.70
2023-08-19T20:53:06.161Z,24.70
2023-08-19T20:55:51.846Z,24.70
2023-08-19T20:58:37.631Z,24.70
2023-08-19T21:01:24.228Z,24.60
2023-08-19T21:04:10.111Z,24.60
2023-08-19T21:06:55.716Z,24.60
2023-08-19T21:09:41.321Z,24.60
2023-08-19T21:12:27.102Z,24.60
2023-08-19T21:15:13.209Z,24.60
2023-08-19T21:17:59.029Z,24.50
2023-08-19T21:20:46.068Z,24.50
2023-08-19T21:23:32.545Z,24.50
2023-08-19T21:26:20.086Z,24.50
2023-08-19T21:29:05.684Z,24.50
2023-08-19T21:31:51.782Z,24.60
2023-08-19T21:34:37.282Z,24.60
2023-08-19T21:37:24.528Z,24.50
2023-08-19T21:40:10.554Z,24.50
2023-08-19T21:42:56.450Z,24.50
2023-08-19T21:45:42.630Z,24.50
2023-08-19T21:48:28.463Z,24.40
2023-08-19T21:51:14.565Z,24.40
2023-08-19T21:54:00.175Z,24.40
2023-08-19T21:56:45.915Z,24.40
2023-08-19T21:59:31.513Z,24.30
2023-08-19T22:02:17.115Z,24.40
2023-08-19T22:05:02.698Z,24.40
2023-08-19T22:07:48.466Z,24.30
2023-08-19T22:10:33.723Z,24.30
2023-08-19T22:13:18.904Z,24.30
2023-08-19T22:16:04.858Z,24.30
2023-08-19T22:18:51.052Z,24.30
2023-08-19T22:21:36.574Z,24.20
2023-08-19T22:24:22.744Z,24.20
2023-08-19T22:27:08.423Z,24.20
2023-08-19T22:29:53.726Z,24.20
2023-08-19T22:32:39.777Z,24.20
2023-08-19T22:35:25.157Z,24.20
2023-08-19T22:38:11.086Z,24.20
2023-08-19T22:40:56.549Z,24.10
2023-08-19T22:43:41.713Z,24.10
2023-08-19T22:46:27.191Z,24.00
2023-08-19T22:49:12.691Z,24.00
2023-08-19T22:51:59.615Z,24.00
2023-08-19T22:54:45.721Z,24.00
2023-08-19T22:57:30.973Z,24.00
2023-08-19T23:00:18.305Z,24.00
2023-08-19T23:03:05.964Z,24.00
2023-08-19T23:05:56.089Z,23.90
2023-08-19T23:08:41.849Z,23.90
2023-08-19T23:11:27.905Z,23.90
2023-08-19T23:14:13.367Z,23.90
2023-08-19T23:16:59.262Z,23.80
2023-08-19T23:19:44.763Z,23.80
2023-08-19T23:22:30.337Z,23.80
2023-08-19T23:25:16.243Z,23.70
2023-08-19T23:28:01.717Z,23.70
2023-08-19T23:30:47.368Z,23.70
2023-08-19T23:33:33.010Z,23.70
2023-08-19T23:36:18.671Z,23.70
2023-08-19T23:39:08.456Z,23.70
2023-08-19T23:41:54.165Z,23.70
2023-08-19T23:44:40.022Z,23.60
2023-08-19T23:47:26.150Z,23.60
2023-08-19T23:50:11.993Z,23.60
2023-08-19T23:53:01.242Z,23.60
2023-08-19T23:55:47.168Z,23.50
2023-08-19T23:58:32.833Z,23.50
